METAR AND TAF INFORMATION
METAR FOR LRIA
ADDS - METARS form results

(0353 UTC 26 February 2020)
Data provider http://aviationweather.gov/metar/data/
 
METAR text: LRIA 260330Z 09009KT CAVOK 04/M02 Q0999
Conditions at: LRIA (IASI , RO) observed 0330 UTC 26 February 2020
Temperature: 4.0°C (39°F)
Dewpoint: -2.0°C (28°F) [RH = 65%]
Pressure (altimeter): 29.50 inches Hg (999.0 mb)
Winds: from the E (90 degrees) at 10 MPH (9 knots; 4.6 m/s)
Visibility: 6 or more miles (10+ km)
Ceiling: ceiling and visibility are OK
Clouds: unknown
Weather: no significant weather observed at this time

METAR text: LRIA 260300Z 08007KT CAVOK 04/M02 Q1000
Conditions at: LRIA (IASI , RO) observed 0300 UTC 26 February 2020
Temperature: 4.0°C (39°F)
Dewpoint: -2.0°C (28°F) [RH = 65%]
Pressure (altimeter): 29.53 inches Hg (1000.0 mb)
Winds: from the E (80 degrees) at 8 MPH (7 knots; 3.6 m/s)
Visibility: 6 or more miles (10+ km)
Ceiling: ceiling and visibility are OK
Clouds: unknown
Weather: no significant weather observed at this time

Forecast for: LRIA (IASI , RO)
Text: TAF LRIA 260200Z 2603/2612 09008KT CAVOK
Forecast period: 0300 to 1200 UTC 26 February 2020
Forecast type: FROM: standard forecast or significant change
Winds: from the E (90 degrees) at 9 MPH (8 knots; 4.1 m/s)
Visibility: 6 or more miles 10+ km)
Ceiling: unknown
Clouds: missing
Weather: NSW  (no significant weather)

 AIRPORT MAP

 RUNWAY INFORMATION
Runway 15 Runway length 5841 ft Runway width 98 ft
Runway elevation 397 ft Runway displaced threshold 0 ft Runway heading 154
Runway 33 Runway length 5841 ft Runway width 98 ft
Runway elevation 340 ft Runway displaced threshold 0 ft Runway heading 334

 AIRPORT FREQUENCIES
Type APP Name APP Frequency 119.2 MHZ
Type GCA Name PRECISION Frequency 118.8 MHZ
Type TWR Name TWR Frequency 119.2 MHZ

 AIRPORT NEAR NAVIGATION AIDS
Type NDB Name Iasi Frequency 391 KHZ



Powered by Virtual Airlines Manager [v2.6.2]